createdAt,value
2023-02-21T00:00:15.332Z,1.15
2023-02-21T00:03:03.493Z,1.25
2023-02-21T00:05:50.777Z,1.12
2023-02-21T00:08:37.898Z,1.27
2023-02-21T00:11:25.271Z,1.20
2023-02-21T00:14:12.644Z,1.27
2023-02-21T00:16:59.603Z,1.45
2023-02-21T00:19:47.214Z,1.45
2023-02-21T00:22:34.280Z,1.30
2023-02-21T00:25:21.500Z,1.40
2023-02-21T00:28:08.658Z,1.45
2023-02-21T00:30:56.040Z,1.45
2023-02-21T00:33:43.763Z,1.32
2023-02-21T00:36:36.481Z,2.22
2023-02-21T00:39:23.806Z,1.75
2023-02-21T00:42:10.972Z,2.60
2023-02-21T00:44:58.258Z,2.00
2023-02-21T00:47:45.408Z,3.10
2023-02-21T00:50:35.574Z,1.70
2023-02-21T00:53:23.102Z,2.33
2023-02-21T00:56:09.952Z,2.37
2023-02-21T00:58:57.242Z,0.98
2023-02-21T01:01:45.875Z,1.27
2023-02-21T01:04:33.443Z,1.57
2023-02-21T01:07:20.578Z,1.35
2023-02-21T01:10:08.833Z,1.10
2023-02-21T01:12:56.216Z,1.30
2023-02-21T01:15:43.750Z,1.70
2023-02-21T01:18:31.485Z,1.75
2023-02-21T01:21:20.496Z,1.02
2023-02-21T01:24:07.595Z,1.90
2023-02-21T01:26:56.608Z,1.87
2023-02-21T01:29:43.867Z,1.42
2023-02-21T01:32:30.961Z,2.90
2023-02-21T01:35:19.377Z,2.45
2023-02-21T01:38:06.738Z,2.35
2023-02-21T01:40:55.520Z,2.15
2023-02-21T01:43:44.923Z,1.98
2023-02-21T01:46:35.178Z,1.45
2023-02-21T01:52:20.583Z,1.98
2023-02-21T01:55:10.971Z,2.55
2023-02-21T02:00:46.456Z,1.50
2023-02-21T02:03:36.931Z,2.25
2023-02-21T02:06:30.133Z,2.20
2023-02-21T02:09:17.913Z,3.67
2023-02-21T02:12:22.884Z,2.15
2023-02-21T02:15:04.131Z,2.42
2023-02-21T02:18:05.349Z,3.17
2023-02-21T02:20:49.714Z,2.60
2023-02-21T02:23:44.843Z,2.30
2023-02-21T02:26:18.442Z,2.45
2023-02-21T02:29:02.816Z,1.80
2023-02-21T02:31:41.218Z,3.50
2023-02-21T02:34:31.442Z,2.40
2023-02-21T02:37:26.738Z,2.92
2023-02-21T02:40:07.942Z,3.45
2023-02-21T02:42:40.390Z,4.15
2023-02-21T02:45:43.302Z,2.67
2023-02-21T02:48:24.345Z,2.15
2023-02-21T02:50:55.700Z,3.37
2023-02-21T02:53:28.641Z,2.95
2023-02-21T02:56:02.451Z,3.00
2023-02-21T02:58:38.516Z,2.55
2023-02-21T03:01:10.961Z,3.15
2023-02-21T03:04:03.246Z,2.67
2023-02-21T03:06:41.643Z,3.05
2023-02-21T03:09:23.281Z,3.25
2023-02-21T03:12:19.626Z,2.83
2023-02-21T03:14:54.906Z,2.70
2023-02-21T03:17:27.758Z,2.87
2023-02-21T03:19:59.956Z,3.90
2023-02-21T03:22:30.748Z,3.47
2023-02-21T03:25:02.901Z,3.47
2023-02-21T03:27:34.536Z,3.12
2023-02-21T03:30:13.088Z,3.95
2023-02-21T03:32:46.777Z,3.85
2023-02-21T03:35:16.722Z,4.12
2023-02-21T03:37:49.357Z,3.92
2023-02-21T03:40:24.761Z,4.03
2023-02-21T03:42:55.499Z,3.20
2023-02-21T03:45:26.057Z,2.70
2023-02-21T03:48:15.549Z,3.62
2023-02-21T03:50:43.689Z,3.00
2023-02-21T03:53:13.278Z,4.80
2023-02-21T03:55:44.585Z,3.25
2023-02-21T03:58:15.717Z,3.50
2023-02-21T04:00:45.405Z,4.37
2023-02-21T04:03:15.562Z,3.30
2023-02-21T04:05:46.626Z,3.83
2023-02-21T04:08:16.410Z,3.58
2023-02-21T04:10:52.408Z,3.70
2023-02-21T04:13:19.871Z,3.85
2023-02-21T04:15:49.840Z,3.25
2023-02-21T04:18:19.493Z,4.28
2023-02-21T04:20:50.861Z,3.12
2023-02-21T04:23:23.885Z,4.12
2023-02-21T04:25:54.937Z,3.20
2023-02-21T04:28:26.097Z,3.37
2023-02-21T04:30:55.414Z,5.17
2023-02-21T04:33:24.761Z,3.35
2023-02-21T04:35:54.225Z,2.98
2023-02-21T04:38:28.515Z,3.72
2023-02-21T04:40:57.886Z,3.25
2023-02-21T04:43:27.474Z,3.23
2023-02-21T04:45:56.896Z,4.30
2023-02-21T04:48:28.529Z,3.50
2023-02-21T04:51:06.949Z,5.45
2023-02-21T04:53:28.997Z,3.80
2023-02-21T04:55:58.396Z,5.12
2023-02-21T04:58:31.223Z,3.70
2023-02-21T05:00:58.870Z,3.40
2023-02-21T05:03:29.220Z,4.23
2023-02-21T05:08:28.827Z,4.15
2023-02-21T05:10:58.897Z,4.80
2023-02-21T05:13:28.362Z,3.87
2023-02-21T05:15:59.382Z,3.90
2023-02-21T05:18:28.827Z,4.47
2023-02-21T05:20:58.231Z,6.37
2023-02-21T05:23:36.614Z,5.47
2023-02-21T05:26:08.797Z,4.47
2023-02-21T05:28:39.573Z,6.03
2023-02-21T05:31:09.167Z,5.87
2023-02-21T05:33:38.617Z,5.33
2023-02-21T05:36:08.438Z,5.60
2023-02-21T05:38:40.844Z,4.78
2023-02-21T05:41:10.171Z,6.10
2023-02-21T05:43:39.734Z,4.83
2023-02-21T05:46:09.533Z,4.87
2023-02-21T05:48:38.923Z,3.95
2023-02-21T05:51:09.233Z,5.10
2023-02-21T05:56:10.234Z,5.70
2023-02-21T05:58:38.619Z,5.15
2023-02-21T06:01:10.524Z,6.37
2023-02-21T06:03:41.798Z,4.95
2023-02-21T06:06:11.220Z,5.37
2023-02-21T06:08:47.001Z,8.87
2023-02-21T06:11:27.878Z,4.53
2023-02-21T06:13:58.834Z,4.70
2023-02-21T06:16:30.668Z,6.47
2023-02-21T06:18:59.963Z,7.83
2023-02-21T06:21:29.341Z,5.75
2023-02-21T06:23:59.192Z,4.62
2023-02-21T06:26:28.698Z,5.50
2023-02-21T06:28:58.075Z,7.58
2023-02-21T06:31:29.742Z,5.12
2023-02-21T06:34:01.965Z,6.62
2023-02-21T06:36:31.728Z,6.35
2023-02-21T06:39:01.110Z,7.25
2023-02-21T06:41:32.823Z,7.10
2023-02-21T06:44:02.173Z,7.03
2023-02-21T06:46:32.465Z,6.97
2023-02-21T06:49:01.777Z,8.90
2023-02-21T06:51:36.561Z,8.35
2023-02-21T06:54:08.372Z,7.80
2023-02-21T06:56:38.298Z,5.40
2023-02-21T06:59:08.300Z,6.28
2023-02-21T07:01:37.703Z,6.22
2023-02-21T07:04:07.118Z,8.30
2023-02-21T07:06:37.432Z,7.30
2023-02-21T07:11:36.981Z,8.15
2023-02-21T07:14:06.533Z,5.95
2023-02-21T07:16:35.999Z,7.08
2023-02-21T07:19:05.777Z,5.30
2023-02-21T07:24:05.901Z,6.72
2023-02-21T07:26:37.214Z,7.15
2023-02-21T07:29:07.477Z,7.28
2023-02-21T07:31:36.936Z,8.68
2023-02-21T07:34:06.824Z,6.87
2023-02-21T07:36:40.259Z,6.75
2023-02-21T07:39:10.086Z,6.60
2023-02-21T07:41:39.448Z,5.87
2023-02-21T07:44:12.158Z,6.05
2023-02-21T07:46:42.853Z,6.05
2023-02-21T07:49:12.205Z,7.60
2023-02-21T07:51:41.588Z,6.45
2023-02-21T07:54:11.082Z,10.03
2023-02-21T07:56:51.448Z,7.20
2023-02-21T07:59:24.678Z,6.83
2023-02-21T08:01:54.299Z,6.90
2023-02-21T08:04:24.108Z,7.50
2023-02-21T08:06:53.536Z,7.62
2023-02-21T08:09:22.860Z,13.25
2023-02-21T08:11:52.293Z,7.53
2023-02-21T08:14:21.716Z,7.95
2023-02-21T08:16:51.053Z,6.00
2023-02-21T08:19:20.496Z,7.78
2023-02-21T08:21:50.995Z,7.03
2023-02-21T08:24:20.985Z,6.35
2023-02-21T08:26:50.347Z,7.42
2023-02-21T08:29:19.941Z,8.03
2023-02-21T08:31:49.383Z,6.75
2023-02-21T08:34:18.916Z,8.23
2023-02-21T08:36:48.322Z,8.20
2023-02-21T08:39:17.766Z,8.28
2023-02-21T08:41:49.649Z,7.20
2023-02-21T08:44:21.251Z,7.30
2023-02-21T08:46:50.837Z,8.25
2023-02-21T08:49:20.310Z,8.95
2023-02-21T08:51:49.725Z,7.10
2023-02-21T08:54:19.529Z,6.50
2023-02-21T08:56:50.551Z,7.55
2023-02-21T08:59:20.059Z,7.50
2023-02-21T09:01:49.429Z,6.53
2023-02-21T09:04:18.896Z,6.60
2023-02-21T09:06:48.329Z,7.40
2023-02-21T09:09:17.633Z,9.33
2023-02-21T09:11:49.051Z,6.10
2023-02-21T09:14:18.408Z,7.97
2023-02-21T09:16:48.216Z,8.07
2023-02-21T09:19:17.665Z,7.15
2023-02-21T09:21:48.276Z,7.87
2023-02-21T09:24:17.664Z,7.42
2023-02-21T09:26:47.194Z,9.57
2023-02-21T09:29:16.584Z,7.93
2023-02-21T09:31:46.002Z,8.30
2023-02-21T09:34:15.529Z,8.05
2023-02-21T09:36:45.041Z,8.03
2023-02-21T09:39:15.023Z,8.40
2023-02-21T09:41:45.334Z,8.03
2023-02-21T09:44:22.943Z,11.08
2023-02-21T09:46:56.578Z,10.23
2023-02-21T09:49:28.851Z,9.45
2023-02-21T09:52:00.659Z,9.23
2023-02-21T09:54:42.004Z,10.30
2023-02-21T09:57:16.511Z,7.53
2023-02-21T09:59:46.598Z,8.43
2023-02-21T10:02:25.006Z,9.55
2023-02-21T10:05:30.729Z,8.43
2023-02-21T10:08:25.554Z,9.25
2023-02-21T10:11:01.071Z,8.05
2023-02-21T10:13:59.190Z,8.15
2023-02-21T10:16:31.605Z,8.45
2023-02-21T10:19:19.094Z,9.05
2023-02-21T10:21:50.990Z,8.70
2023-02-21T10:24:25.364Z,6.67
2023-02-21T10:27:03.879Z,8.33
2023-02-21T10:29:51.496Z,8.53
2023-02-21T10:32:21.292Z,8.25
2023-02-21T10:34:51.198Z,7.85
2023-02-21T10:37:26.597Z,8.35
2023-02-21T10:40:07.633Z,9.73
2023-02-21T10:42:42.493Z,7.65
2023-02-21T10:45:13.658Z,8.75
2023-02-21T10:47:58.340Z,7.28
2023-02-21T10:50:55.191Z,9.83
2023-02-21T10:53:27.667Z,9.50
2023-02-21T10:56:20.856Z,8.53
2023-02-21T10:59:07.840Z,8.83
2023-02-21T11:01:45.650Z,9.95
2023-02-21T11:04:30.295Z,8.68
2023-02-21T11:07:11.928Z,8.00
2023-02-21T11:09:46.479Z,8.35
2023-02-21T11:12:21.619Z,8.88
2023-02-21T11:14:56.762Z,7.33
2023-02-21T11:17:29.956Z,8.23
2023-02-21T11:20:08.260Z,7.83
2023-02-21T11:22:42.884Z,7.87
2023-02-21T11:25:30.594Z,8.78
2023-02-21T11:28:05.509Z,6.80
2023-02-21T11:30:43.545Z,9.83
2023-02-21T11:33:13.076Z,9.08
2023-02-21T11:35:50.983Z,9.60
2023-02-21T11:38:42.960Z,9.90
2023-02-21T11:41:30.652Z,11.95
2023-02-21T11:44:00.292Z,10.18
2023-02-21T11:46:51.191Z,8.15
2023-02-21T11:49:26.084Z,8.35
2023-02-21T11:52:01.241Z,8.13
2023-02-21T11:54:31.673Z,9.88
2023-02-21T11:57:07.800Z,9.25
2023-02-21T12:00:15.219Z,7.55
2023-02-21T12:03:04.894Z,11.20
2023-02-21T12:06:01.107Z,8.78
2023-02-21T12:08:46.586Z,8.63
2023-02-21T12:11:21.721Z,10.32
2023-02-21T12:14:17.666Z,9.05
2023-02-21T12:17:23.082Z,8.20
2023-02-21T12:20:01.236Z,9.15
2023-02-21T12:22:42.852Z,7.97
2023-02-21T12:25:31.483Z,11.15
2023-02-21T12:28:17.006Z,8.88
2023-02-21T12:30:52.434Z,9.20
2023-02-21T12:33:33.571Z,9.63
2023-02-21T12:36:16.489Z,7.53
2023-02-21T12:39:01.318Z,9.63
2023-02-21T12:41:50.100Z,8.33
2023-02-21T12:44:34.719Z,10.82
2023-02-21T12:47:10.424Z,9.13
2023-02-21T12:50:05.357Z,7.60
2023-02-21T12:53:00.173Z,10.23
2023-02-21T12:55:35.445Z,9.33
2023-02-21T12:58:20.813Z,8.33
2023-02-21T13:01:09.692Z,7.17
2023-02-21T13:03:45.010Z,9.18
2023-02-21T13:06:32.456Z,12.00
2023-02-21T13:09:10.888Z,10.10
2023-02-21T13:12:04.040Z,6.08
2023-02-21T13:14:48.366Z,7.85
2023-02-21T13:17:19.017Z,9.33
2023-02-21T13:19:57.082Z,8.28
2023-02-21T13:23:20.891Z,10.25
2023-02-21T13:26:11.540Z,7.10
2023-02-21T13:28:42.230Z,8.48
2023-02-21T13:31:23.588Z,7.33
2023-02-21T13:33:56.219Z,7.75
2023-02-21T13:36:28.600Z,6.95
2023-02-21T13:39:16.070Z,7.50
2023-02-21T13:41:51.300Z,8.10
2023-02-21T13:44:27.874Z,8.15
2023-02-21T13:47:03.516Z,7.55
2023-02-21T13:49:44.543Z,8.50
2023-02-21T13:52:31.311Z,8.93
2023-02-21T13:55:21.833Z,10.03
2023-02-21T13:58:00.451Z,7.72
2023-02-21T14:00:33.003Z,7.92
2023-02-21T14:03:09.405Z,9.55
2023-02-21T14:05:49.598Z,8.18
2023-02-21T14:08:34.417Z,7.87
2023-02-21T14:11:15.713Z,7.35
2023-02-21T14:13:54.750Z,8.38
2023-02-21T14:16:35.956Z,8.23
2023-02-21T14:19:13.995Z,8.40
2023-02-21T14:21:46.360Z,8.75
2023-02-21T14:24:18.736Z,7.90
2023-02-21T14:26:53.670Z,7.42
2023-02-21T14:29:31.998Z,8.50
2023-02-21T14:32:10.176Z,10.13
2023-02-21T14:34:51.281Z,9.35
2023-02-21T14:37:26.371Z,8.33
2023-02-21T14:40:05.999Z,9.00
2023-02-21T14:42:38.459Z,7.17
2023-02-21T14:45:16.581Z,10.10
2023-02-21T14:48:04.316Z,8.28
2023-02-21T14:50:48.791Z,8.13
2023-02-21T14:53:49.766Z,7.10
2023-02-21T14:56:41.561Z,8.05
2023-02-21T14:59:48.529Z,8.85
2023-02-21T15:02:32.964Z,7.33
2023-02-21T15:05:23.460Z,8.43
2023-02-21T15:08:10.788Z,7.78
2023-02-21T15:10:45.546Z,6.75
2023-02-21T15:13:33.093Z,7.75
2023-02-21T15:16:08.108Z,8.00
2023-02-21T15:18:39.556Z,8.20
2023-02-21T15:21:15.211Z,6.55
2023-02-21T15:23:46.873Z,8.90
2023-02-21T15:26:25.701Z,8.60
2023-02-21T15:29:14.250Z,11.53
2023-02-21T15:31:52.996Z,8.98
2023-02-21T15:34:25.431Z,7.55
2023-02-21T15:36:57.837Z,8.70
2023-02-21T15:39:33.523Z,9.88
2023-02-21T15:42:06.236Z,7.10
2023-02-21T15:44:45.795Z,7.47
2023-02-21T15:47:17.912Z,8.18
2023-02-21T15:50:08.492Z,7.08
2023-02-21T15:52:48.290Z,6.78
2023-02-21T15:55:23.701Z,10.45
2023-02-21T15:58:10.948Z,8.15
2023-02-21T16:00:46.319Z,7.90
2023-02-21T16:03:39.607Z,9.25
2023-02-21T16:06:25.213Z,9.18
2023-02-21T16:09:04.293Z,8.78
2023-02-21T16:11:42.673Z,9.03
2023-02-21T16:14:21.075Z,7.05
2023-02-21T16:16:55.019Z,7.30
2023-02-21T16:19:25.447Z,9.20
2023-02-21T16:21:57.876Z,9.80
2023-02-21T16:24:32.623Z,8.60
2023-02-21T16:27:05.002Z,10.30
2023-02-21T16:29:34.369Z,9.00
2023-02-21T16:32:04.224Z,11.43
2023-02-21T16:34:36.229Z,8.58
2023-02-21T16:37:09.104Z,8.35
2023-02-21T16:39:39.093Z,9.28
2023-02-21T16:42:08.791Z,9.70
2023-02-21T16:44:38.307Z,7.30
2023-02-21T16:47:08.702Z,9.67
2023-02-21T16:52:06.559Z,7.50
2023-02-21T16:54:35.919Z,9.35
2023-02-21T16:57:05.919Z,7.62
2023-02-21T16:59:36.102Z,11.48
2023-02-21T17:02:06.603Z,13.13
2023-02-21T17:04:36.022Z,13.10
2023-02-21T17:07:08.652Z,14.07
2023-02-21T17:09:41.796Z,14.65
2023-02-21T17:12:13.375Z,12.03
2023-02-21T17:14:42.815Z,12.43
2023-02-21T17:17:12.122Z,11.03
2023-02-21T17:19:41.664Z,12.25
2023-02-21T17:22:11.366Z,10.73
2023-02-21T17:24:40.795Z,9.33
2023-02-21T17:27:10.424Z,11.08
2023-02-21T17:29:39.938Z,11.10
2023-02-21T17:32:09.327Z,7.30
2023-02-21T17:34:39.740Z,9.60
2023-02-21T17:39:39.049Z,9.33
2023-02-21T17:42:09.058Z,9.43
2023-02-21T17:44:38.400Z,11.10
2023-02-21T17:47:08.682Z,7.75
2023-02-21T17:52:06.781Z,9.68
2023-02-21T17:54:36.105Z,7.58
2023-02-21T17:57:08.802Z,9.80
2023-02-21T17:59:39.247Z,8.25
2023-02-21T18:02:08.960Z,9.35
2023-02-21T18:04:38.859Z,11.65
2023-02-21T18:07:11.418Z,10.75
2023-02-21T18:09:39.554Z,11.03
2023-02-21T18:12:09.162Z,8.90
2023-02-21T18:14:38.486Z,10.55
2023-02-21T18:17:07.938Z,9.13
2023-02-21T18:19:37.426Z,8.03
2023-02-21T18:22:06.783Z,9.07
2023-02-21T18:24:36.203Z,8.40
2023-02-21T18:27:05.626Z,9.57
2023-02-21T18:29:35.016Z,7.65
2023-02-21T18:32:04.493Z,9.20
2023-02-21T18:34:33.839Z,7.50
2023-02-21T18:37:03.247Z,8.18
2023-02-21T18:39:33.308Z,11.15
2023-02-21T18:42:02.790Z,8.95
2023-02-21T18:44:33.046Z,7.65
2023-02-21T18:47:02.624Z,8.83
2023-02-21T18:49:34.125Z,9.13
2023-02-21T18:52:05.203Z,6.92
2023-02-21T18:54:35.265Z,6.70
2023-02-21T18:57:04.813Z,8.10
2023-02-21T18:59:36.851Z,7.10
2023-02-21T19:02:07.418Z,10.08
2023-02-21T19:04:36.740Z,7.83
2023-02-21T19:07:11.141Z,10.65
2023-02-21T19:09:40.991Z,9.95
2023-02-21T19:12:10.391Z,9.55
2023-02-21T19:14:39.905Z,10.40
2023-02-21T19:17:09.533Z,10.00
2023-02-21T19:19:39.691Z,9.75
2023-02-21T19:22:09.270Z,10.65
2023-02-21T19:24:38.604Z,8.97
2023-02-21T19:27:08.005Z,10.32
2023-02-21T19:29:37.379Z,9.38
2023-02-21T19:32:06.955Z,9.63
2023-02-21T19:34:38.098Z,10.55
2023-02-21T19:37:09.373Z,8.95
2023-02-21T19:39:38.739Z,8.05
2023-02-21T19:42:09.125Z,8.23
2023-02-21T19:47:07.707Z,8.43
2023-02-21T19:49:37.351Z,9.27
2023-02-21T19:52:06.740Z,8.45
2023-02-21T19:54:36.161Z,8.23
2023-02-21T19:57:05.716Z,8.63
2023-02-21T19:59:35.133Z,9.53
2023-02-21T20:02:04.693Z,8.80
2023-02-21T20:04:35.173Z,9.47
2023-02-21T20:07:05.355Z,11.22
2023-02-21T20:09:34.806Z,8.55
2023-02-21T20:12:05.033Z,11.93
2023-02-21T20:14:34.548Z,8.98
2023-02-21T20:17:04.893Z,10.90
2023-02-21T20:22:04.277Z,9.15
2023-02-21T20:24:33.728Z,10.17
2023-02-21T20:27:03.468Z,9.80
2023-02-21T20:29:32.915Z,10.55
2023-02-21T20:32:03.848Z,9.67
2023-02-21T20:34:33.973Z,8.43
2023-02-21T20:37:03.287Z,7.37
2023-02-21T20:39:34.920Z,9.60
2023-02-21T20:42:08.241Z,9.15
2023-02-21T20:44:39.130Z,10.30
2023-02-21T20:47:09.760Z,10.03
2023-02-21T20:49:39.803Z,8.95
2023-02-21T20:52:09.192Z,9.13
2023-02-21T20:54:38.729Z,8.03
2023-02-21T20:57:09.091Z,8.47
2023-02-21T21:02:09.382Z,9.30
2023-02-21T21:04:42.787Z,8.30
2023-02-21T21:07:20.062Z,9.63
2023-02-21T21:09:49.768Z,9.10
2023-02-21T21:12:21.597Z,7.20
2023-02-21T21:14:56.129Z,9.50
2023-02-21T21:17:25.624Z,8.48
2023-02-21T21:19:55.072Z,8.13
2023-02-21T21:22:27.936Z,8.05
2023-02-21T21:24:57.557Z,8.83
2023-02-21T21:27:27.894Z,8.33
2023-02-21T21:32:26.293Z,8.80
2023-02-21T21:34:57.871Z,8.65
2023-02-21T21:37:29.294Z,7.70
2023-02-21T21:39:58.842Z,8.58
2023-02-21T21:42:29.921Z,8.53
2023-02-21T21:44:59.247Z,9.48
2023-02-21T21:47:35.134Z,8.85
2023-02-21T21:50:05.976Z,9.15
2023-02-21T21:52:35.352Z,8.03
2023-02-21T21:55:06.720Z,7.87
2023-02-21T21:57:36.552Z,8.65
2023-02-21T22:00:07.896Z,6.62
2023-02-21T22:02:38.168Z,6.85
2023-02-21T22:05:07.724Z,6.75
2023-02-21T22:07:37.093Z,8.03
2023-02-21T22:10:08.360Z,7.42
2023-02-21T22:12:38.391Z,8.73
2023-02-21T22:15:10.005Z,8.23
2023-02-21T22:17:41.067Z,9.23
2023-02-21T22:20:20.099Z,7.10
2023-02-21T22:22:51.803Z,8.15
2023-02-21T22:25:22.087Z,7.17
2023-02-21T22:27:51.589Z,8.40
2023-02-21T22:30:22.520Z,8.03
2023-02-21T22:32:52.474Z,9.80
2023-02-21T22:35:21.965Z,6.47
2023-02-21T22:37:57.512Z,6.53
2023-02-21T22:40:29.752Z,8.58
2023-02-21T22:43:01.151Z,8.18
2023-02-21T22:45:34.711Z,7.78
2023-02-21T22:48:06.908Z,8.48
2023-02-21T22:50:39.443Z,8.18
2023-02-21T22:53:12.059Z,6.53
2023-02-21T22:55:41.428Z,7.08
2023-02-21T22:58:11.337Z,9.43
2023-02-21T23:00:40.823Z,7.40
2023-02-21T23:03:13.465Z,8.23
2023-02-21T23:05:47.545Z,7.12
2023-02-21T23:08:19.852Z,7.70
2023-02-21T23:10:49.348Z,6.53
2023-02-21T23:13:21.613Z,6.33
2023-02-21T23:15:54.734Z,7.10
2023-02-21T23:18:23.553Z,7.00
2023-02-21T23:20:55.389Z,9.65
2023-02-21T23:23:27.512Z,7.47
2023-02-21T23:25:59.312Z,7.65
2023-02-21T23:28:30.502Z,8.25
2023-02-21T23:30:59.891Z,7.35
2023-02-21T23:33:33.134Z,7.70
2023-02-21T23:36:04.223Z,6.47
2023-02-21T23:38:38.987Z,8.38
2023-02-21T23:41:08.579Z,7.83
2023-02-21T23:43:40.030Z,7.40
2023-02-21T23:46:11.622Z,6.87
2023-02-21T23:48:40.952Z,8.20
2023-02-21T23:51:10.541Z,6.60
2023-02-21T23:53:42.597Z,6.17
2023-02-21T23:56:13.758Z,6.87
2023-02-21T23:58:47.815Z,8.25
